Date,TemperatureHighF,TemperatureAvgF,TemperatureLowF,DewpointHighF,DewpointAvgF,DewpointLowF,HumidityHigh,HumidityAvg,HumidityLow,PressureMaxIn,PressureMinIn,WindSpeedMaxMPH,WindSpeedAvgMPH,GustSpeedMaxMPH,PrecipitationSumIn
2014-1-1,50.9,43.9,37.3,47.0,42.5,37.0,99,95,75,30.41,30.16,6,0,11,0.31
2014-1-2,58.3,50.9,45.8,58.0,50.7,45.0,100,99,91,30.15,29.65,5,0,12,0.78
2014-1-3,50.7,34.9,26.1,48.0,22.8,15.0,90,63,39,30.46,29.73,6,2,14,0.00
2014-1-4,46.6,38.0,26.7,43.0,30.6,17.0,93,75,61,30.48,30.23,5,1,10,0.00
2014-1-5,66.7,55.8,44.8,64.0,54.7,43.0,99,96,90,30.22,29.89,4,0,7,0.00
2014-1-6,64.0,50.3,28.0,64.0,41.8,12.0,100,75,40,30.25,29.77,8,2,13,0.03
2014-1-7,31.2,24.5,17.3,13.0,6.2,1.0,65,47,31,30.57,30.25,4,1,9,0.00
2014-1-8,41.5,29.3,19.0,29.0,20.5,12.0,90,71,48,30.64,30.51,11,1,17,0.00
2014-1-9,55.1,42.4,29.7,48.0,37.5,28.0,93,83,71,30.54,30.41,9,2,15,0.00
2014-1-10,68.0,60.9,50.8,64.0,58.8,48.0,99,93,84,30.40,30.10,8,1,12,0.05
2014-1-11,71.1,65.2,59.4,70.0,64.6,59.0,100,98,92,30.09,29.74,8,2,19,0.43
2014-1-12,62.1,50.9,36.8,59.0,43.0,36.0,99,78,38,30.24,29.79,3,1,12,0.02
2014-1-13,62.7,47.2,33.6,51.0,42.4,33.0,100,86,48,30.24,29.99,4,0,6,0.01
2014-1-14,59.7,54.0,42.3,60.0,53.8,42.0,100,99,96,30.02,29.83,3,0,10,0.46
2014-1-15,60.6,46.3,35.4,55.0,42.6,35.0,100,89,54,30.02,29.89,4,0,6,0.01
2014-1-16,48.8,40.8,31.0,41.0,35.2,30.0,97,82,56,30.12,29.91,5,0,7,0.00
2014-1-17,59.2,45.2,28.2,51.0,37.8,26.0,96,77,47,30.13,29.91,8,2,12,0.03
2014-1-18,48.6,38.9,28.0,44.0,24.2,17.0,89,58,36,30.13,29.93,6,1,14,0.00
2014-1-19,58.2,42.5,28.9,37.0,31.6,24.0,87,67,44,30.11,29.98,6,1,9,0.00
2014-1-20,68.4,49.6,37.8,44.0,35.0,26.0,87,64,20,30.04,29.89,8,1,13,0.00
2014-1-21,62.9,51.2,41.7,51.0,39.7,26.0,90,66,43,29.90,29.55,11,2,13,0.00
2014-1-22,42.5,35.2,24.0,30.0,24.0,20.0,90,65,42,30.16,29.79,4,1,11,0.00
2014-1-23,42.4,32.1,23.1,23.0,17.7,13.0,93,59,32,30.37,30.15,4,1,9,0.00
2014-1-24,32.8,25.5,13.2,24.0,7.3,-2.0,84,50,23,30.61,30.34,6,1,12,0.00
2014-1-25,54.9,33.5,12.2,37.0,14.0,-99.9,91,59,27,30.36,29.79,12,-71,17,0.00
2014-1-26,54.6,44.7,30.7,38.0,30.8,24.0,79,60,36,30.05,29.95,6,1,9,0.00
2014-1-27,67.5,53.5,42.3,52.0,43.4,35.0,88,70,46,30.00,29.86,8,1,11,0.00
2014-1-28,53.9,36.4,28.0,50.0,28.2,17.0,95,74,48,30.24,29.98,7,2,18,0.10
2014-1-29,28.9,26.1,23.2,28.0,24.4,22.0,96,93,89,30.39,30.12,2,0,4,0.00
2014-1-30,31.1,27.8,24.1,30.0,25.2,22.0,95,90,82,30.39,30.22,2,0,3,0.00
2014-1-31,56.3,38.7,30.9,46.0,36.2,30.0,97,91,67,30.28,30.18,4,0,6,0.06
2014-2-1,51.3,44.4,33.7,47.0,42.0,33.0,99,91,73,30.23,30.12,5,0,11,0.05
2014-2-2,69.2,52.3,44.6,57.0,49.1,44.0,99,89,64,30.18,30.08,5,0,7,0.00
2014-2-3,70.4,63.1,50.9,66.0,61.4,48.0,100,94,84,30.18,30.00,10,2,15,0.00
2014-2-4,52.1,46.4,44.3,48.0,43.5,41.0,98,90,83,30.32,30.08,14,3,22,0.00
2014-2-5,72.8,58.4,44.7,69.0,55.1,43.0,100,90,64,30.08,29.85,6,1,17,0.08
2014-2-6,51.4,45.4,39.4,43.0,37.6,32.0,94,75,54,30.35,30.04,7,1,11,0.04
2014-2-7,47.2,39.9,33.6,40.0,36.3,33.0,97,87,70,30.37,30.25,10,1,12,0.01
2014-2-8,49.5,41.0,32.7,43.0,38.8,32.0,98,92,75,30.28,30.12,3,1,9,0.20
2014-2-9,57.5,44.0,30.4,49.0,40.4,30.0,100,88,64,30.21,30.04,5,1,8,0.00
2014-2-10,58.6,46.5,37.4,48.0,43.0,37.0,99,88,66,30.18,30.04,10,2,17,0.00
2014-2-11,44.5,35.9,30.6,40.0,34.0,30.0,98,93,74,30.36,30.16,6,2,14,0.42
2014-2-12,33.0,30.8,29.2,33.0,28.9,-99.9,99,95,92,30.33,29.73,7,-11,10,0.91
2014-2-13,38.7,35.2,32.6,38.0,34.4,32.0,99,96,90,29.82,29.57,5,1,13,0.14
2014-2-14,63.0,47.3,34.3,45.0,38.3,33.0,95,74,34,29.92,29.79,7,2,11,0.00
2014-2-15,56.1,48.2,31.9,49.0,38.1,23.0,96,71,34,30.09,29.61,10,3,20,0.19
2014-2-16,51.8,42.3,31.5,40.0,35.4,29.0,93,78,57,30.18,30.06,6,1,8,0.00
2014-2-17,47.2,43.0,35.9,42.0,38.2,35.0,96,83,68,30.34,30.16,19,4,19,0.00
2014-2-18,69.2,52.9,43.6,53.0,48.2,42.0,98,85,56,30.24,30.14,6,1,11,0.00
2014-2-19,79.5,64.4,48.5,59.0,53.1,45.0,99,71,30,30.14,29.99,9,2,13,0.00
2014-2-20,77.7,65.4,56.4,66.0,60.5,52.0,99,85,67,30.20,30.08,8,1,13,0.00
2014-2-21,72.4,63.9,51.9,69.0,62.4,51.0,98,95,86,30.08,29.86,12,2,19,0.28
2014-2-22,62.3,51.3,42.1,51.0,42.8,34.0,99,77,37,30.19,30.05,10,1,17,0.01
2014-2-23,61.6,51.2,39.8,55.0,46.1,39.0,99,85,54,30.13,29.95,4,0,5,0.00
2014-2-24,64.9,54.7,43.0,55.0,47.6,41.0,99,80,46,30.13,29.92,7,1,10,0.00
2014-2-25,75.4,56.9,42.5,58.0,47.3,42.0,99,75,38,30.11,29.88,6,1,16,0.00
2014-2-26,52.6,44.6,37.7,47.0,42.1,37.0,98,91,76,29.94,29.77,9,1,12,0.43
2014-2-27,54.7,43.1,35.0,44.0,38.9,35.0,99,87,56,29.97,29.83,8,1,11,0.01
2014-2-28,49.7,42.2,31.3,42.0,35.9,27.0,99,80,58,30.24,29.98,11,3,20,0.00
2014-3-1,56.2,46.9,41.0,46.0,42.1,36.0,95,83,68,30.34,30.22,6,1,12,0.00
2014-3-2,66.9,54.6,39.7,53.0,46.8,39.0,98,77,51,30.25,30.03,5,1,9,0.00
2014-3-3,75.7,57.8,34.3,60.0,50.7,33.0,96,79,47,30.16,29.84,11,2,17,0.54
2014-3-4,37.0,33.4,28.7,33.0,28.0,24.0,94,81,70,30.28,30.15,10,1,12,0.00
2014-3-5,42.4,38.6,35.0,42.0,36.3,30.0,98,91,77,30.22,30.12,3,0,7,0.18
2014-3-6,45.5,40.5,37.8,45.0,38.7,33.0,99,93,80,30.23,29.76,12,3,21,1.04
2014-3-7,45.5,42.6,40.4,45.0,42.3,40.0,100,99,96,30.00,29.73,6,2,10,0.37
2014-3-8,68.3,49.8,32.9,52.0,43.1,32.0,99,81,47,30.15,30.00,4,1,8,0.01
2014-3-9,72.4,58.3,47.8,51.0,48.0,45.0,95,72,38,30.12,30.02,6,1,10,0.00
2014-3-10,77.0,59.7,46.4,55.0,47.1,39.0,98,69,30,30.04,29.86,6,1,9,0.00
2014-3-11,80.1,63.9,49.5,57.0,51.6,46.0,94,67,32,29.89,29.73,8,2,13,0.00
2014-3-12,73.9,66.0,57.4,62.0,58.1,41.0,97,76,54,29.76,29.45,9,2,18,0.13
2014-3-13,55.5,46.2,31.1,40.0,26.5,20.0,81,49,28,30.26,29.65,13,2,13,0.00
2014-3-14,60.2,43.0,26.6,42.0,32.1,24.0,94,70,34,30.39,30.19,6,1,13,0.00
2014-3-15,74.4,59.7,41.8,52.0,45.5,40.0,95,64,30,30.19,30.01,7,1,10,0.00
2014-3-16,58.5,52.3,48.6,55.0,49.8,44.0,99,91,75,30.07,29.76,8,1,17,1.17
2014-3-17,55.2,45.7,39.8,55.0,45.6,40.0,100,99,98,29.89,29.71,5,1,11,0.38
2014-3-18,47.0,40.7,36.2,44.0,39.6,36.0,99,96,87,30.12,29.81,8,2,16,0.04
2014-3-19,54.5,45.1,39.3,49.0,43.4,39.0,99,93,80,30.19,30.04,3,0,9,0.00
2014-3-20,70.9,54.9,39.4,55.0,49.2,39.0,100,83,48,30.07,29.96,7,1,10,0.01
2014-3-21,61.1,51.6,43.9,47.0,41.3,31.0,98,72,34,30.20,30.03,11,2,15,0.00
2014-3-22,76.4,60.2,44.4,64.0,55.7,44.0,99,87,54,30.12,29.98,8,1,11,0.00
2014-3-23,77.5,62.0,48.1,64.0,56.4,43.0,99,84,43,30.11,29.85,4,1,11,0.00
2014-3-24,49.6,45.7,39.1,43.0,37.2,34.0,92,73,57,30.26,30.09,15,3,17,0.00
2014-3-25,54.8,48.2,39.6,52.0,44.5,36.0,97,87,61,30.09,29.73,11,2,14,0.61
2014-3-26,53.0,40.6,30.2,35.0,25.0,19.0,87,58,28,30.36,30.00,6,1,12,0.00
2014-3-27,55.6,44.0,27.8,47.0,34.7,26.0,95,73,40,30.51,30.32,10,2,13,0.00
2014-3-28,67.3,56.9,43.3,63.0,55.8,43.0,99,96,81,30.32,30.12,3,0,10,0.48
2014-3-29,70.7,63.5,59.4,68.0,62.9,59.0,100,97,88,30.12,29.69,6,1,13,2.85
2014-3-30,63.5,55.7,44.9,61.0,40.3,28.0,91,58,32,30.04,29.69,8,2,14,0.00
2014-3-31,76.7,54.0,35.8,53.0,37.4,27.0,94,61,18,30.15,30.04,4,1,8,0.00
2014-4-1,75.8,59.7,40.4,56.0,47.1,40.0,99,68,38,30.18,30.07,8,1,10,0.00
2014-4-2,85.2,67.8,52.0,61.0,50.7,46.0,87,57,26,30.16,30.07,7,2,12,0.00
2014-4-3,84.5,69.5,61.2,61.0,57.9,53.0,85,68,38,30.12,30.00,9,2,15,0.00
2014-4-4,81.7,71.1,60.5,65.0,62.4,59.0,97,75,53,30.00,29.88,11,2,13,0.00
2014-4-5,83.3,70.7,60.9,63.0,59.9,51.0,94,71,34,29.99,29.91,7,1,11,0.00
2014-4-6,62.7,58.5,56.3,60.0,51.8,46.0,95,78,65,30.12,29.99,10,3,18,0.00
2014-4-7,77.7,65.2,57.2,69.0,61.6,53.0,99,89,71,30.02,29.77,8,2,12,0.62
2014-4-8,72.4,65.6,58.2,67.0,62.8,55.0,100,91,67,29.77,29.61,4,1,10,0.14
2014-4-9,71.7,59.4,48.5,55.0,49.4,42.0,97,74,36,30.13,29.66,5,1,11,0.17
2014-4-10,73.9,59.2,45.8,59.0,50.3,41.0,99,76,34,30.30,30.13,10,1,13,0.00
2014-4-11,79.0,66.2,55.0,59.0,54.8,51.0,96,70,39,30.32,30.17,8,1,14,0.00
2014-4-12,79.4,65.2,53.7,65.0,59.3,53.0,99,83,45,30.25,30.17,5,1,14,0.00
2014-4-13,78.8,67.7,56.8,68.0,61.6,57.0,99,83,56,30.24,30.14,10,1,11,0.00
2014-4-14,72.8,68.0,64.7,69.0,65.9,62.0,98,93,82,30.14,29.87,5,1,8,0.16
2014-4-15,71.0,67.0,49.8,70.0,65.6,47.0,99,95,88,29.94,29.68,7,2,13,0.36
2014-4-16,53.9,48.3,38.7,47.0,38.0,32.0,91,69,50,30.39,29.97,14,4,17,0.00
2014-4-17,63.4,53.8,39.3,54.0,45.2,32.0,85,73,59,30.48,30.36,11,3,16,0.00
2014-4-18,62.6,57.4,52.1,57.0,52.1,45.0,99,83,67,30.37,30.09,14,5,23,1.37
2014-4-19,61.3,57.1,51.9,60.0,56.1,51.0,100,96,89,30.08,29.92,17,4,24,1.83
2014-4-20,61.3,56.4,51.6,56.0,53.4,49.0,99,90,73,30.12,30.03,7,2,13,0.65
2014-4-21,77.6,62.3,50.1,60.0,54.2,46.0,97,76,54,30.11,29.96,6,1,11,0.00
2014-4-22,83.2,67.1,53.2,64.0,58.9,53.0,99,78,40,29.96,29.72,5,1,13,0.00
2014-4-23,83.5,69.2,56.1,63.0,57.3,50.0,98,70,34,29.94,29.75,3,1,8,0.00
2014-4-24,64.7,60.4,51.3,59.0,53.6,49.0,96,79,62,30.12,29.95,14,3,19,0.00
2014-4-25,81.1,69.7,58.2,70.0,64.6,57.0,99,85,57,30.01,29.77,8,1,14,0.00
2014-4-26,75.8,65.4,55.9,65.0,55.0,41.0,99,73,31,30.05,29.87,10,1,10,0.00
2014-4-27,85.0,68.7,53.2,68.0,60.0,53.0,99,78,43,30.05,29.94,6,1,10,0.00
2014-4-28,83.5,72.6,62.2,72.0,67.8,62.0,99,86,67,30.00,29.87,7,1,14,0.00
2014-4-29,83.6,75.4,70.5,75.0,72.3,70.0,99,90,75,30.04,29.88,7,2,13,0.00
2014-4-30,77.8,71.7,67.7,74.0,70.6,67.0,99,96,86,30.07,29.95,5,1,12,0.68
2014-5-1,82.7,73.2,67.6,70.0,68.4,67.0,99,86,61,29.98,29.89,3,1,8,0.01
2014-5-2,68.6,63.6,59.5,67.0,59.2,56.0,96,86,67,29.96,29.90,3,0,6,0.00
2014-5-3,79.2,67.5,58.7,60.0,56.0,50.0,97,71,37,29.98,29.88,3,0,7,0.00
2014-5-4,85.2,68.6,52.7,59.0,53.9,49.0,97,64,29,30.04,29.93,5,1,11,0.00
2014-5-5,89.3,70.9,63.9,65.0,60.0,51.0,98,71,36,29.99,29.89,11,2,12,0.00
2014-5-6,92.0,78.7,64.7,68.0,61.3,55.0,97,59,29,29.98,29.87,3,1,7,0.00
2014-5-7,92.8,76.8,62.8,66.0,62.1,58.0,92,63,32,30.14,29.98,6,1,11,0.00
2014-5-8,91.8,76.0,62.2,73.0,66.6,61.0,98,75,37,30.24,30.14,5,1,13,0.00
2014-5-9,88.8,75.9,66.2,73.0,69.7,66.0,99,83,50,30.22,30.11,7,1,15,0.00
2014-5-10,85.5,76.7,69.6,73.0,70.4,67.0,98,82,59,30.18,30.07,5,1,16,0.01
2014-5-11,82.8,74.1,69.1,75.0,71.7,69.0,99,92,75,30.16,30.09,6,0,10,0.15
2014-5-12,90.7,77.5,68.5,74.0,71.5,68.0,100,83,51,30.21,30.13,4,1,8,0.01
2014-5-13,85.5,75.6,66.3,74.0,70.0,66.0,99,84,62,30.19,30.13,8,1,11,0.00
2014-5-14,81.9,73.5,61.9,73.0,68.7,62.0,100,86,69,30.20,30.10,9,1,12,0.00
2014-5-15,77.8,73.1,70.7,75.0,71.7,70.0,99,95,89,30.10,29.89,6,2,14,1.02
2014-5-16,78.4,67.8,53.7,71.0,58.7,49.0,99,76,39,30.08,29.83,4,1,11,0.28
2014-5-17,76.6,63.6,49.1,56.0,49.7,44.0,98,66,34,30.21,30.08,4,1,9,0.00
2014-5-18,73.7,62.4,52.9,60.0,56.4,52.0,98,82,55,30.22,30.17,2,0,5,0.00
2014-5-19,71.6,61.9,51.7,60.0,52.8,48.0,99,75,44,30.30,30.19,13,2,16,0.01
2014-5-20,76.4,62.7,48.5,63.0,53.4,48.0,99,75,48,30.32,30.18,5,1,9,0.00
2014-5-21,88.8,72.7,57.1,70.0,63.1,55.0,93,74,47,30.18,30.01,4,1,8,0.00
2014-5-22,96.7,80.0,68.4,72.0,66.5,63.0,90,67,36,30.03,29.90,4,1,8,0.00
2014-5-23,93.4,78.3,65.2,72.0,68.8,64.0,97,74,47,30.11,29.91,5,1,9,0.63
2014-5-24,77.8,69.8,62.5,65.0,62.5,59.0,99,80,55,30.11,29.97,6,1,10,0.01
2014-5-25,79.8,71.4,59.8,67.0,63.7,59.0,99,78,58,30.22,30.10,4,1,8,0.00
2014-5-26,84.4,75.4,65.3,71.0,67.5,64.0,97,78,56,30.25,30.15,10,1,12,0.00
2014-5-27,85.9,75.5,65.2,76.0,70.4,64.0,98,85,63,30.18,30.02,5,1,9,0.11
2014-5-28,92.1,79.4,70.1,76.0,71.7,67.0,98,79,46,30.06,29.96,3,0,6,0.00
2014-5-29,88.3,76.8,66.9,75.0,70.1,66.0,97,81,54,30.09,29.98,5,1,10,0.00
2014-5-30,81.2,73.7,66.2,73.0,70.4,66.0,99,90,76,30.10,30.02,5,1,12,0.01
2014-5-31,77.2,73.0,70.3,73.0,69.4,64.0,99,88,76,30.17,30.06,12,2,16,0.32
2014-6-1,75.0,72.1,68.7,67.0,58.9,52.0,83,64,46,30.30,30.17,12,5,18,0.00
2014-6-2,76.7,69.6,58.4,67.0,62.3,56.0,94,78,59,30.27,30.15,9,2,11,0.00
2014-6-3,86.4,72.8,60.3,70.0,65.7,59.0,98,80,50,30.16,29.98,5,1,13,0.00
2014-6-4,92.6,78.2,68.3,74.0,69.4,65.0,90,76,48,29.99,29.86,4,1,10,0.00
2014-6-5,92.5,80.1,72.9,77.0,72.8,69.0,97,79,54,29.90,29.76,6,2,13,0.03
2014-6-6,85.7,75.9,70.1,76.0,73.1,70.0,99,91,72,29.94,29.83,5,0,10,0.32
2014-6-7,79.6,74.3,67.6,75.0,69.6,65.0,100,86,66,30.00,29.89,9,2,15,0.00
2014-6-8,81.7,75.1,65.0,72.0,67.7,64.0,98,78,63,30.01,29.92,9,2,12,0.00
2014-6-9,95.5,83.0,74.7,79.0,74.5,68.0,98,78,40,29.95,29.86,3,1,9,0.00
2014-6-10,95.9,81.6,75.1,82.0,76.1,72.0,98,84,54,29.98,29.92,5,1,9,0.44
2014-6-11,86.7,80.0,72.6,78.0,75.0,71.0,99,85,64,29.99,29.89,6,1,13,0.01
2014-6-12,90.6,78.3,71.0,77.0,73.3,70.0,99,86,54,29.94,29.84,9,1,12,0.02
2014-6-13,90.7,78.6,70.5,76.0,72.8,70.0,98,83,54,29.91,29.84,5,1,10,0.10
2014-6-14,92.7,78.5,68.9,76.0,71.7,69.0,100,82,54,30.05,29.91,3,0,8,0.00
2014-6-15,88.1,78.0,69.2,77.0,73.3,69.0,99,86,61,30.15,30.03,7,1,11,0.00
2014-6-16,85.6,77.4,68.5,77.0,72.9,68.0,99,87,70,30.20,30.13,9,1,9,0.00
2014-6-17,89.0,77.1,67.2,77.0,71.3,67.0,99,83,62,30.21,30.13,9,1,11,0.00
2014-6-18,91.3,78.7,66.2,77.0,71.8,66.0,99,81,51,30.18,30.10,7,1,10,0.00
2014-6-19,92.2,79.7,70.1,77.0,73.4,69.0,99,82,51,30.16,30.04,8,1,13,0.00
2014-6-20,93.7,81.3,71.5,80.0,74.1,70.0,97,80,54,30.07,29.93,5,1,9,0.00
2014-6-21,92.3,81.2,73.1,80.0,76.0,71.0,96,85,66,29.96,29.80,7,1,10,0.01
2014-6-22,90.1,76.1,69.3,77.0,72.4,68.0,99,89,62,29.93,29.80,5,1,16,0.89
2014-6-23,82.1,76.7,69.9,77.0,74.2,70.0,100,92,82,30.09,29.93,11,2,13,0.01
2014-6-24,84.4,77.4,72.8,78.0,74.9,72.0,99,92,75,30.12,30.02,3,1,11,0.45
2014-6-25,90.3,80.0,72.6,79.0,75.5,72.0,97,86,68,30.07,29.94,3,1,10,0.00
2014-6-26,96.0,84.4,75.5,78.0,75.4,71.0,97,76,46,30.00,29.91,3,0,6,0.00
2014-6-27,91.4,82.0,74.8,78.0,74.4,72.0,96,78,57,30.05,29.96,4,0,9,0.00
2014-6-28,85.1,77.1,74.2,77.0,74.9,73.0,98,93,76,30.16,30.03,8,1,18,0.16
2014-6-29,82.8,76.2,69.3,76.0,72.3,69.0,99,88,71,30.18,30.10,12,2,16,0.00
2014-6-30,84.7,77.3,67.9,75.0,70.1,67.0,97,79,63,30.12,29.99,5,1,10,0.00
2014-7-1,90.1,78.8,68.2,77.0,72.4,68.0,99,82,58,30.01,29.93,5,1,10,0.00
2014-7-2,88.7,81.6,72.5,80.0,76.8,72.0,99,86,71,30.01,29.96,7,1,11,0.02
2014-7-3,80.6,75.6,71.7,78.0,73.7,71.0,99,94,85,29.99,29.70,10,2,17,1.38
2014-7-4,86.7,79.0,71.1,78.0,74.2,70.0,98,86,71,30.10,29.92,4,1,8,0.00
2014-7-5,80.2,76.7,72.9,75.0,69.7,66.0,99,80,69,30.23,30.09,12,3,20,0.00
2014-7-6,81.9,77.5,71.6,74.0,71.9,70.0,96,83,76,30.17,30.07,13,3,17,0.00
2014-7-7,87.6,77.2,67.1,78.0,73.0,67.0,99,88,64,30.09,30.01,5,1,13,0.01
2014-7-8,95.3,82.0,75.2,79.0,76.3,72.0,98,84,49,30.08,29.99,7,1,11,0.57
2014-7-9,94.8,83.4,76.7,79.0,76.6,74.0,96,81,51,30.06,30.00,9,1,11,0.00
2014-7-10,91.8,83.3,77.4,80.0,77.1,75.0,96,82,63,30.11,30.02,6,1,13,0.00
2014-7-11,82.8,76.8,71.9,77.0,73.7,70.0,96,90,76,30.20,30.07,3,0,6,0.01
2014-7-12,84.8,77.8,71.6,77.0,74.1,71.0,100,89,70,30.22,30.15,7,1,13,0.27
2014-7-13,86.7,77.6,70.3,78.0,73.8,70.0,99,89,71,30.17,30.05,3,0,9,0.02
2014-7-14,91.3,80.6,72.2,81.0,76.5,72.0,99,88,65,30.08,29.94,4,1,10,0.00
2014-7-15,93.1,79.7,70.8,80.0,75.7,70.0,99,88,64,29.96,29.84,8,1,14,0.42
2014-7-16,86.5,76.2,70.7,77.0,73.8,70.0,100,92,72,29.91,29.82,4,0,6,0.29
2014-7-17,82.5,75.9,68.7,75.0,71.8,69.0,100,88,72,30.07,29.89,10,1,16,0.01
2014-7-18,83.9,77.6,67.7,75.0,68.7,62.0,98,76,55,30.14,30.06,12,2,14,0.00
2014-7-19,84.3,77.7,68.2,74.0,70.5,66.0,96,79,65,30.13,30.07,9,1,10,0.00
2014-7-20,85.4,76.5,69.6,79.0,74.4,69.0,100,93,79,30.11,30.03,5,0,7,0.89
2014-7-21,85.7,78.7,73.0,78.0,75.8,73.0,99,91,78,30.10,30.04,6,1,8,0.27
2014-7-22,84.3,78.1,73.5,79.0,76.2,73.0,99,94,82,30.12,30.05,3,0,8,0.16
2014-7-23,89.7,78.9,71.8,79.0,75.7,72.0,99,91,66,30.09,29.97,6,0,8,0.18
2014-7-24,94.6,83.7,76.0,80.0,77.6,75.0,100,83,54,29.98,29.86,5,1,10,0.01
2014-7-25,90.4,76.1,71.7,79.0,73.7,71.0,100,93,67,30.06,29.93,6,0,13,2.09
2014-7-26,91.1,79.1,69.9,80.0,75.6,70.0,100,90,66,30.04,29.97,7,0,8,0.00
2014-7-27,95.3,85.0,77.0,81.0,77.7,74.0,100,81,51,30.01,29.88,3,0,6,0.01
2014-7-28,94.4,84.4,73.6,81.0,77.4,72.0,94,80,62,29.89,29.76,5,1,8,0.00
2014-7-29,86.9,77.6,69.9,72.0,69.0,66.0,97,77,53,29.96,29.81,7,1,8,0.00
2014-7-30,84.2,76.6,67.4,76.0,70.5,67.0,99,82,66,30.05,29.95,6,2,13,0.00
2014-7-31,83.6,79.2,69.5,77.0,74.0,69.0,99,84,78,30.08,30.02,9,3,16,3.94
2014-8-1,80.4,76.6,71.3,77.0,74.7,71.0,99,94,86,30.06,29.99,4,1,18,0.02
2014-8-2,78.6,74.6,72.7,77.0,74.1,72.0,100,98,91,30.08,29.99,3,0,11,0.26
2014-8-3,77.2,73.7,71.3,76.0,73.1,71.0,100,98,88,30.11,30.02,8,1,8,1.24
2014-8-4,78.9,74.8,70.5,76.0,73.7,70.0,100,96,88,30.07,29.99,5,0,6,0.10
2014-8-5,86.5,77.8,72.3,80.0,75.0,72.0,99,91,73,30.02,29.95,5,0,8,0.02
2014-8-6,95.6,82.3,72.7,79.0,73.1,67.0,100,78,41,30.01,29.92,2,0,5,0.01
2014-8-7,95.4,82.0,69.8,76.0,73.3,70.0,99,78,47,29.98,29.90,3,0,5,0.00
2014-8-8,84.1,77.7,70.7,78.0,74.8,70.0,99,91,80,30.09,29.97,14,2,15,0.00
2014-8-9,84.2,77.4,72.5,79.0,75.5,71.0,99,94,80,30.08,30.00,4,1,8,0.62
2014-8-10,83.4,76.7,73.4,79.0,75.7,73.0,100,97,82,30.04,29.98,8,1,10,0.24
2014-8-11,84.5,78.7,73.7,79.0,76.2,73.0,99,92,79,30.02,29.92,8,1,10,1.23
2014-8-12,90.8,79.1,72.7,80.0,76.4,73.0,100,92,68,29.93,29.82,4,0,6,0.21
2014-8-13,90.4,79.7,72.9,79.0,75.7,73.0,100,89,63,29.94,29.83,3,0,5,0.01
2014-8-14,82.9,74.6,65.5,73.0,67.6,64.0,97,80,60,30.05,29.95,7,1,10,0.00
2014-8-15,86.0,75.3,64.6,76.0,69.0,64.0,100,83,54,30.06,29.97,6,1,7,0.00
2014-8-16,88.4,77.6,70.9,80.0,74.8,70.0,100,91,66,30.04,29.97,3,0,9,0.27
2014-8-17,94.9,82.4,73.3,80.0,75.2,70.0,100,82,45,30.03,29.95,6,0,6,0.00
2014-8-18,94.0,82.0,71.6,80.0,76.2,71.0,98,84,57,29.98,29.82,4,1,11,0.36
2014-8-19,91.8,79.8,72.4,78.0,74.5,72.0,99,86,57,29.91,29.81,7,1,9,0.12
2014-8-20,91.8,80.1,73.2,80.0,76.6,73.0,99,90,65,30.03,29.88,4,0,7,0.07
2014-8-21,96.5,82.6,73.5,81.0,77.0,73.0,100,85,55,30.07,29.99,3,0,7,0.01
2014-8-22,98.7,84.5,75.5,81.0,78.3,75.0,100,84,48,30.05,29.93,3,0,8,0.00
2014-8-23,94.7,81.3,75.6,82.0,78.4,75.0,99,91,61,29.95,29.84,4,1,10,0.75
2014-8-24,84.1,77.7,71.6,76.0,72.0,64.0,100,83,68,30.02,29.86,10,2,17,0.00
2014-8-25,83.4,73.5,64.3,73.0,67.2,61.0,98,81,63,30.04,29.98,8,1,11,0.08
2014-8-26,84.1,74.8,65.6,71.0,68.1,64.0,96,81,62,30.07,30.01,7,1,12,0.00
2014-8-27,88.8,74.9,63.7,70.0,67.1,63.0,98,79,48,30.04,29.95,7,1,8,0.00
2014-8-28,93.1,75.9,64.0,72.0,67.7,64.0,99,79,40,30.05,29.98,7,0,9,0.00
2014-8-29,88.2,77.8,66.5,78.0,73.4,66.0,99,87,66,30.13,30.03,5,1,11,0.00
2014-8-30,86.6,79.8,70.7,79.0,75.6,70.0,99,87,69,30.20,30.11,6,1,9,0.00
2014-8-31,88.0,80.6,74.0,80.0,76.5,73.0,99,88,72,30.17,30.07,6,1,9,0.00
2014-9-1,88.6,81.0,74.7,80.0,77.5,74.0,99,89,74,30.11,30.06,4,1,10,0.02
2014-9-2,91.3,80.9,74.3,81.0,77.5,74.0,100,90,68,30.10,30.00,4,0,9,0.00
2014-9-3,88.9,80.3,73.0,80.0,76.4,73.0,99,88,69,30.11,30.01,9,1,11,0.00
2014-9-4,88.1,79.9,71.0,79.0,75.5,71.0,99,87,68,30.17,30.10,5,1,10,0.00
2014-9-5,86.5,80.2,73.5,78.0,75.4,73.0,99,86,70,30.18,30.08,8,1,14,0.10
2014-9-6,86.3,78.4,73.7,78.0,75.2,73.0,99,90,75,30.08,29.95,8,0,8,0.78
2014-9-7,87.4,78.9,72.7,79.0,75.5,72.0,100,90,71,30.04,29.95,4,0,8,0.01
2014-9-8,80.6,75.3,72.7,77.0,74.4,72.0,100,97,86,30.06,29.99,4,0,10,2.50
2014-9-9,77.3,72.7,70.1,73.0,71.7,70.0,100,96,87,30.10,30.03,1,0,5,0.01
2014-9-10,83.0,74.4,66.9,75.0,70.9,67.0,100,90,71,30.12,30.04,5,1,7,0.00
2014-9-11,87.9,77.1,68.4,79.0,74.1,68.0,100,91,71,30.08,29.97,4,0,7,0.00
2014-9-12,92.3,79.6,74.0,80.0,76.0,73.0,100,90,64,30.06,29.97,4,0,9,0.01
2014-9-13,87.0,77.6,71.6,80.0,75.7,71.0,100,94,74,30.11,30.02,4,0,7,0.46
2014-9-14,75.7,73.4,69.9,75.0,72.4,69.0,100,97,89,30.20,30.08,3,0,7,0.16
2014-9-15,77.7,72.5,67.6,75.0,71.5,67.0,100,96,89,30.20,30.11,6,0,9,0.02
2014-9-16,87.0,75.0,70.2,77.0,73.3,70.0,100,95,69,30.11,29.94,4,0,4,0.09
2014-9-17,84.5,73.7,66.6,72.0,69.7,67.0,100,89,63,29.96,29.86,4,0,11,0.01
2014-9-18,81.9,74.3,66.4,76.0,70.6,66.0,100,89,74,30.00,29.89,8,2,13,0.04
2014-9-19,79.7,76.9,69.5,72.0,69.5,67.0,97,78,67,30.12,29.99,21,4,21,0.48
2014-9-20,77.5,71.5,67.7,71.0,68.0,65.0,97,89,71,30.12,29.90,15,2,16,0.04
2014-9-21,86.5,74.5,66.5,72.0,67.6,65.0,98,81,53,29.95,29.85,5,1,9,0.02
2014-9-22,82.5,73.3,65.8,71.0,67.9,65.0,99,84,66,30.10,29.92,8,1,13,0.22
2014-9-23,70.1,63.5,58.7,70.0,63.3,59.0,100,99,98,30.19,30.11,8,1,11,0.83
2014-9-24,68.4,62.6,58.4,65.0,61.8,58.0,99,97,88,30.20,30.14,4,1,13,0.05
2014-9-25,79.6,69.8,64.7,74.0,69.1,64.0,100,97,83,30.17,30.10,6,0,8,0.09
2014-9-26,73.4,68.1,64.5,70.0,67.2,64.0,100,96,88,30.14,30.07,7,1,11,0.10
2014-9-27,75.9,70.4,65.8,72.0,67.9,63.0,97,91,84,30.14,30.08,9,2,11,0.02
2014-9-28,75.8,72.8,68.1,74.0,70.6,67.0,96,93,89,30.13,30.04,8,2,12,0.00
2014-9-29,73.3,69.0,63.1,72.0,68.4,63.0,100,98,94,30.04,29.93,5,0,10,0.63
2014-9-30,78.4,68.9,62.3,70.0,65.4,62.0,100,89,68,29.93,29.83,8,1,10,0.01
2014-10-1,78.3,68.6,61.0,71.0,65.8,61.0,100,91,72,30.04,29.89,7,1,8,0.01
2014-10-2,80.9,69.9,61.1,75.0,67.4,61.0,100,92,75,30.13,30.04,4,0,7,0.00
2014-10-3,83.5,73.1,61.6,75.0,68.9,62.0,100,88,65,30.08,29.84,5,1,11,0.01
2014-10-4,79.3,71.0,56.0,72.0,60.1,47.0,97,72,38,29.91,29.72,3,1,8,0.00
2014-10-5,66.9,54.8,42.6,50.0,44.4,40.0,97,72,41,30.07,29.92,7,1,11,0.00
2014-10-6,74.7,58.9,44.8,60.0,49.9,45.0,99,77,40,30.16,30.06,6,0,10,0.00
2014-10-7,82.6,67.1,55.4,70.0,62.4,55.0,100,87,50,30.16,30.05,3,0,6,0.00
2014-10-8,89.4,75.2,67.2,74.0,70.1,67.0,100,86,56,30.11,29.99,4,1,9,0.01
2014-10-9,75.9,69.4,59.6,70.0,62.0,57.0,98,79,53,30.16,30.04,9,1,16,0.00
2014-10-10,81.0,69.5,57.8,71.0,65.5,57.0,100,88,66,30.14,30.05,6,1,8,0.00
2014-10-11,89.7,75.4,65.0,74.0,70.5,65.0,100,86,54,30.07,29.97,4,0,9,0.01
2014-10-12,74.1,71.2,68.2,72.0,70.0,68.0,99,96,93,30.18,30.01,7,2,14,0.00
2014-10-13,80.0,74.6,67.4,77.0,73.3,67.0,100,95,89,30.21,30.11,15,3,16,0.01
2014-10-14,82.1,76.4,70.6,77.0,74.0,69.0,99,92,83,30.11,29.95,8,1,14,0.24
2014-10-15,75.1,67.8,57.3,74.0,66.3,57.0,99,95,77,29.95,29.85,2,0,8,0.29
2014-10-16,74.8,62.4,53.9,61.0,56.4,54.0,100,83,52,29.91,29.81,4,0,8,0.01
2014-10-17,77.8,63.0,51.8,62.0,56.9,51.0,99,83,52,29.98,29.87,3,0,5,0.01
2014-10-18,82.0,67.9,57.9,66.0,60.5,57.0,97,79,52,29.88,29.76,3,0,7,0.00
2014-10-19,70.2,58.7,48.2,58.0,51.2,47.0,97,78,50,30.13,29.88,6,0,8,0.00
2014-10-20,74.6,59.1,46.3,63.0,55.0,46.0,100,88,60,30.17,30.00,9,1,10,0.00
2014-10-21,78.8,64.0,54.7,65.0,57.9,55.0,100,83,50,30.00,29.86,4,0,8,0.01
2014-10-22,67.4,57.2,48.1,58.0,48.4,45.0,97,75,49,30.07,29.90,4,1,9,0.00
2014-10-23,69.2,54.7,44.5,52.0,47.6,43.0,97,79,50,30.08,29.97,3,0,5,0.00
2014-10-24,69.2,55.0,45.7,57.0,51.1,45.0,99,88,64,30.08,29.98,3,0,5,0.00
2014-10-25,76.2,57.6,46.0,57.0,50.7,46.0,100,82,41,30.03,29.93,2,0,7,0.01
2014-10-26,83.2,63.3,49.1,62.0,55.4,48.0,98,79,44,29.97,29.87,2,0,5,0.01
2014-10-27,74.7,63.5,52.8,70.0,61.4,53.0,100,93,76,30.12,29.97,6,1,10,0.00
2014-10-28,83.2,67.3,56.3,71.0,62.9,56.0,100,87,57,30.19,30.10,3,0,8,0.01
2014-10-29,81.6,71.2,64.6,69.0,66.5,64.0,100,86,58,30.10,29.95,5,0,9,0.01
2014-10-30,67.5,60.7,54.1,67.0,58.9,54.0,99,94,81,30.01,29.93,3,0,7,0.04
2014-10-31,67.2,56.2,46.5,55.0,50.5,46.0,99,83,50,29.93,29.76,11,1,19,0.00
2014-11-1,51.6,46.4,40.8,51.0,44.8,39.0,99,94,80,29.98,29.65,5,1,10,0.30
2014-11-2,54.6,43.4,34.7,42.0,36.1,31.0,97,78,46,30.34,29.99,6,1,12,0.01
2014-11-3,61.8,44.3,33.0,45.0,36.1,30.0,98,78,37,30.47,30.33,4,0,8,0.00
2014-11-4,68.6,50.5,35.4,56.0,45.4,35.0,100,85,44,30.42,30.30,1,0,3,0.01
2014-11-5,75.3,62.1,51.0,67.0,58.1,51.0,100,88,65,30.32,30.20,3,0,4,0.00
2014-11-6,77.3,66.3,56.8,67.0,62.3,56.0,100,88,67,30.19,29.82,6,1,9,0.00
2014-11-7,64.2,52.8,40.8,59.0,42.6,38.0,97,71,44,30.06,29.83,5,1,9,0.00
2014-11-8,62.6,51.0,39.1,55.0,48.3,39.0,99,91,75,30.08,29.94,6,1,9,0.00
2014-11-9,60.3,53.2,45.1,55.0,51.2,45.0,99,93,74,30.03,29.90,1,0,5,0.08
2014-11-10,62.6,53.8,44.9,54.0,49.2,45.0,100,85,61,30.09,29.94,3,0,11,0.01
2014-11-11,73.0,63.7,56.2,67.0,61.2,54.0,98,92,80,29.93,29.86,5,1,9,0.03
2014-11-12,76.9,62.2,53.7,62.0,56.8,53.0,100,85,46,30.01,29.91,2,0,3,0.01
2014-11-13,71.8,61.1,52.9,66.0,58.8,53.0,100,92,77,30.04,29.93,3,0,4,0.04
2014-11-14,55.1,44.8,32.0,54.0,40.7,31.0,97,86,71,30.29,29.97,6,1,10,0.00
2014-11-15,50.3,37.9,29.8,34.0,28.9,24.0,98,73,42,30.43,30.28,5,1,12,0.00
2014-11-16,54.5,48.1,34.1,54.0,45.2,32.0,99,89,75,30.34,30.08,9,0,11,0.20
2014-11-17,75.6,62.1,48.0,71.0,60.5,47.0,100,94,82,30.07,29.71,6,2,16,0.01
2014-11-18,50.3,38.8,24.3,44.0,29.7,22.0,91,72,48,30.35,29.89,5,1,15,0.00
2014-11-19,46.4,32.7,22.0,33.0,26.3,18.0,98,80,41,30.46,30.30,4,0,11,0.00
2014-11-20,62.2,44.7,26.3,41.0,33.9,26.0,99,71,37,30.30,30.13,4,1,8,0.01
2014-11-21,57.2,49.3,39.3,41.0,38.6,33.0,93,68,46,30.50,30.22,9,1,11,0.00
2014-11-22,56.7,48.3,31.7,55.0,43.9,29.0,98,85,60,30.54,30.28,9,2,13,0.00
2014-11-23,70.4,61.1,55.5,70.0,60.9,55.0,100,99,98,30.29,29.76,9,2,17,1.36
2014-11-24,72.0,67.4,64.3,70.0,67.0,64.0,100,99,94,29.99,29.78,6,1,11,0.08
2014-11-25,64.4,62.3,60.9,64.0,62.3,61.0,100,100,99,30.10,29.88,6,0,11,0.85
2014-11-26,67.7,52.1,40.3,68.0,51.8,40.0,100,99,94,30.12,29.74,5,1,10,0.19
2014-11-27,54.4,44.0,36.2,43.0,38.7,36.0,100,84,53,30.28,30.07,5,1,13,0.01
2014-11-28,48.5,36.8,28.6,36.0,29.9,25.0,99,80,42,30.40,30.28,3,0,10,0.00
2014-11-29,54.8,39.6,27.5,44.0,35.2,27.0,100,86,52,30.40,30.31,6,0,9,0.01
2014-11-30,70.7,51.5,36.4,56.0,47.0,36.0,100,87,47,30.41,30.30,5,0,7,0.00
2014-12-1,73.3,56.1,44.8,60.0,52.9,45.0,100,90,59,30.44,30.33,4,0,6,0.01
2014-12-2,64.3,56.3,50.8,62.0,55.3,51.0,100,96,85,30.38,30.30,8,2,13,0.00
2014-12-3,67.6,55.6,51.3,62.0,54.7,51.0,100,97,80,30.32,30.22,8,0,9,0.00
2014-12-4,58.6,54.8,51.4,56.0,53.7,51.0,100,96,88,30.37,30.26,9,1,15,0.01
2014-12-5,63.3,53.5,44.2,56.0,51.0,43.0,98,91,77,30.44,30.31,5,1,7,0.00
2014-12-6,68.1,58.3,50.2,63.0,56.7,49.0,99,94,83,30.31,30.05,2,0,4,0.16
2014-12-7,62.1,51.1,45.2,62.0,46.5,37.0,99,84,72,30.34,30.04,11,2,15,0.01
2014-12-8,51.9,45.1,41.5,44.0,39.8,35.0,97,82,71,30.33,30.09,5,1,10,0.05
2014-12-9,51.6,43.9,40.4,44.0,41.6,40.0,98,92,76,30.09,29.92,7,1,9,0.00
2014-12-10,55.4,43.4,33.8,42.0,37.3,33.0,97,82,50,30.08,29.97,5,1,8,0.01
2014-12-11,54.0,37.0,27.1,38.0,32.2,27.0,99,85,53,30.17,30.04,3,0,5,0.00
2014-12-12,59.6,39.7,24.8,36.0,29.7,24.0,99,73,29,30.29,30.15,2,0,7,0.01
2014-12-13,63.3,43.6,30.8,42.0,33.0,28.0,94,72,30,30.20,30.05,3,0,5,0.00
2014-12-14,61.6,43.5,33.3,45.0,37.1,32.0,97,81,40,30.08,30.00,2,0,6,0.00
2014-12-15,58.5,43.7,32.7,53.0,41.6,32.0,100,93,73,30.14,30.05,5,0,6,0.00
2014-12-16,67.5,51.2,36.7,56.0,46.8,36.0,100,87,55,30.10,29.94,8,1,10,0.01
2014-12-17,62.9,49.2,41.2,49.0,43.7,40.0,97,83,54,30.16,30.04,4,0,6,0.00
2014-12-18,53.5,43.3,36.7,47.0,39.5,36.0,100,88,63,30.19,30.09,12,1,12,0.01
2014-12-19,54.3,44.9,36.4,46.0,40.4,36.0,100,86,57,30.19,30.08,7,1,12,0.00
2014-12-20,52.7,48.5,43.6,50.0,47.2,43.0,98,95,80,30.25,30.16,6,1,11,0.15
2014-12-21,48.6,45.1,40.8,46.0,42.5,39.0,97,91,78,30.26,30.11,7,1,12,0.16
2014-12-22,47.2,45.2,44.0,47.0,45.0,44.0,100,99,97,30.11,29.97,6,0,7,0.52
2014-12-23,56.2,50.8,45.3,56.0,50.9,45.0,100,100,100,30.05,29.93,4,0,9,0.72
2014-12-24,70.2,65.3,56.1,70.0,65.4,56.0,100,100,100,29.91,29.76,7,1,14,1.92
2014-12-25,63.9,53.2,40.1,64.0,48.6,40.0,100,85,60,30.27,29.78,4,1,13,0.00
2014-12-26,59.0,44.8,35.0,51.0,41.5,35.0,100,90,60,30.36,30.25,5,0,10,0.01
2014-12-27,60.4,47.6,37.3,53.0,43.9,37.0,100,89,59,30.37,30.21,6,0,12,0.00
2014-12-28,75.5,61.1,49.1,67.0,58.6,49.0,100,92,73,30.20,30.02,5,0,8,0.00
2014-12-29,65.9,60.3,54.3,65.0,59.9,54.0,100,98,94,30.11,29.99,6,1,12,0.17
2014-12-30,54.3,46.9,41.3,54.0,46.2,39.0,99,97,91,30.42,30.09,6,1,7,0.02
2014-12-31,49.8,39.4,31.3,39.0,34.2,30.0,98,83,48,30.48,30.36,9,1,9,0.00
2015-1-1,53.0,39.5,28.7,43.0,35.6,28.0,100,88,61,30.39,30.27,3,0,7,0.00
2015-1-2,60.3,52.2,43.8,52.0,48.7,43.0,98,88,64,30.38,30.28,5,0,7,0.04